sensor_id;sensor_type;location;lat;lon;timestamp;P1;durP1;ratioP1;P2;durP2;ratioP2
50319;SDS011;36226;53.464;9.852;2023-03-01T00:01:28;2.97;;;1.20;;
50319;SDS011;36226;53.464;9.852;2023-03-01T00:03:55;2.70;;;1.00;;
50319;SDS011;36226;53.464;9.852;2023-03-01T00:06:21;2.40;;;1.00;;
50319;SDS011;36226;53.464;9.852;2023-03-01T00:08:46;1.85;;;0.90;;
50319;SDS011;36226;53.464;9.852;2023-03-01T00:13:41;1.17;;;0.73;;
50319;SDS011;36226;53.464;9.852;2023-03-01T00:16:09;1.83;;;0.85;;
50319;SDS011;36226;53.464;9.852;2023-03-01T00:18:38;2.38;;;1.25;;
50319;SDS011;36226;53.464;9.852;2023-03-01T00:21:04;2.35;;;1.00;;
50319;SDS011;36226;53.464;9.852;2023-03-01T00:23:30;2.03;;;1.10;;
50319;SDS011;36226;53.464;9.852;2023-03-01T00:25:56;4.22;;;1.40;;
50319;SDS011;36226;53.464;9.852;2023-03-01T00:28:21;3.42;;;1.17;;
50319;SDS011;36226;53.464;9.852;2023-03-01T00:30:46;3.17;;;1.60;;
50319;SDS011;36226;53.464;9.852;2023-03-01T00:33:12;3.15;;;1.40;;
50319;SDS011;36226;53.464;9.852;2023-03-01T00:35:38;4.45;;;1.67;;
50319;SDS011;36226;53.464;9.852;2023-03-01T00:38:03;4.68;;;1.55;;
50319;SDS011;36226;53.464;9.852;2023-03-01T00:40:29;3.75;;;1.58;;
50319;SDS011;36226;53.464;9.852;2023-03-01T00:42:56;4.00;;;1.40;;
50319;SDS011;36226;53.464;9.852;2023-03-01T00:45:22;5.35;;;1.75;;
50319;SDS011;36226;53.464;9.852;2023-03-01T00:47:48;6.65;;;2.25;;
50319;SDS011;36226;53.464;9.852;2023-03-01T00:50:14;6.45;;;2.22;;
50319;SDS011;36226;53.464;9.852;2023-03-01T00:52:39;4.82;;;2.10;;
50319;SDS011;36226;53.464;9.852;2023-03-01T00:55:05;6.22;;;2.25;;
50319;SDS011;36226;53.464;9.852;2023-03-01T00:57:31;4.30;;;1.92;;
50319;SDS011;36226;53.464;9.852;2023-03-01T00:59:57;4.78;;;1.92;;
50319;SDS011;36226;53.464;9.852;2023-03-01T01:02:22;3.97;;;1.60;;
50319;SDS011;36226;53.464;9.852;2023-03-01T01:04:48;3.60;;;1.63;;
50319;SDS011;36226;53.464;9.852;2023-03-01T01:07:13;3.90;;;1.58;;
50319;SDS011;36226;53.464;9.852;2023-03-01T01:09:39;3.08;;;1.55;;
50319;SDS011;36226;53.464;9.852;2023-03-01T01:12:05;2.60;;;1.20;;
50319;SDS011;36226;53.464;9.852;2023-03-01T01:14:31;2.15;;;1.15;;
50319;SDS011;36226;53.464;9.852;2023-03-01T01:16:57;2.60;;;1.10;;
50319;SDS011;36226;53.464;9.852;2023-03-01T01:19:22;2.05;;;1.00;;
50319;SDS011;36226;53.464;9.852;2023-03-01T01:21:48;3.83;;;1.10;;
50319;SDS011;36226;53.464;9.852;2023-03-01T01:24:14;3.05;;;1.00;;
50319;SDS011;36226;53.464;9.852;2023-03-01T01:26:40;2.65;;;1.08;;
50319;SDS011;36226;53.464;9.852;2023-03-01T01:29:06;1.90;;;0.70;;
50319;SDS011;36226;53.464;9.852;2023-03-01T01:31:32;1.75;;;0.90;;
50319;SDS011;36226;53.464;9.852;2023-03-01T01:33:59;2.33;;;0.98;;
50319;SDS011;36226;53.464;9.852;2023-03-01T01:36:26;4.00;;;0.93;;
50319;SDS011;36226;53.464;9.852;2023-03-01T01:38:52;1.92;;;0.68;;
50319;SDS011;36226;53.464;9.852;2023-03-01T01:41:18;1.88;;;1.10;;
50319;SDS011;36226;53.464;9.852;2023-03-01T01:43:45;1.33;;;0.90;;
50319;SDS011;36226;53.464;9.852;2023-03-01T01:46:24;3.92;;;1.27;;
50319;SDS011;36226;53.464;9.852;2023-03-01T01:48:55;2.03;;;0.90;;
50319;SDS011;36226;53.464;9.852;2023-03-01T01:51:30;1.50;;;0.77;;
50319;SDS011;36226;53.464;9.852;2023-03-01T01:54:03;1.10;;;0.77;;
50319;SDS011;36226;53.464;9.852;2023-03-01T01:56:34;2.70;;;1.00;;
50319;SDS011;36226;53.464;9.852;2023-03-01T01:59:01;2.65;;;0.80;;
50319;SDS011;36226;53.464;9.852;2023-03-01T02:01:27;1.63;;;0.85;;
50319;SDS011;36226;53.464;9.852;2023-03-01T02:03:52;2.22;;;1.00;;
50319;SDS011;36226;53.464;9.852;2023-03-01T02:06:39;1.35;;;0.85;;
50319;SDS011;36226;53.464;9.852;2023-03-01T02:09:14;2.13;;;1.08;;
50319;SDS011;36226;53.464;9.852;2023-03-01T02:11:40;2.35;;;0.88;;
50319;SDS011;36226;53.464;9.852;2023-03-01T02:14:06;1.40;;;0.65;;
50319;SDS011;36226;53.464;9.852;2023-03-01T02:16:31;1.60;;;0.80;;
50319;SDS011;36226;53.464;9.852;2023-03-01T02:18:57;1.80;;;0.60;;
50319;SDS011;36226;53.464;9.852;2023-03-01T02:21:27;2.03;;;0.70;;
50319;SDS011;36226;53.464;9.852;2023-03-01T02:23:55;1.90;;;0.70;;
50319;SDS011;36226;53.464;9.852;2023-03-01T02:29:17;1.85;;;0.80;;
50319;SDS011;36226;53.464;9.852;2023-03-01T02:31:42;2.00;;;0.80;;
50319;SDS011;36226;53.464;9.852;2023-03-01T02:34:09;1.60;;;0.85;;
50319;SDS011;36226;53.464;9.852;2023-03-01T02:36:39;1.83;;;0.80;;
50319;SDS011;36226;53.464;9.852;2023-03-01T02:39:07;2.80;;;1.10;;
50319;SDS011;36226;53.464;9.852;2023-03-01T02:41:40;4.78;;;1.73;;
50319;SDS011;36226;53.464;9.852;2023-03-01T02:44:06;4.97;;;1.92;;
50319;SDS011;36226;53.464;9.852;2023-03-01T02:46:33;6.10;;;2.10;;
50319;SDS011;36226;53.464;9.852;2023-03-01T02:48:59;4.18;;;1.48;;
50319;SDS011;36226;53.464;9.852;2023-03-01T02:51:34;2.83;;;1.30;;
50319;SDS011;36226;53.464;9.852;2023-03-01T02:56:51;2.10;;;1.05;;
50319;SDS011;36226;53.464;9.852;2023-03-01T02:59:18;1.65;;;0.90;;
50319;SDS011;36226;53.464;9.852;2023-03-01T03:01:45;2.58;;;0.80;;
50319;SDS011;36226;53.464;9.852;2023-03-01T03:04:13;1.98;;;0.90;;
50319;SDS011;36226;53.464;9.852;2023-03-01T03:06:42;2.53;;;0.80;;
50319;SDS011;36226;53.464;9.852;2023-03-01T03:09:11;2.83;;;0.90;;
50319;SDS011;36226;53.464;9.852;2023-03-01T03:11:37;2.45;;;1.02;;
50319;SDS011;36226;53.464;9.852;2023-03-01T03:14:04;2.38;;;1.10;;
50319;SDS011;36226;53.464;9.852;2023-03-01T03:16:30;3.03;;;1.20;;
50319;SDS011;36226;53.464;9.852;2023-03-01T03:18:55;2.08;;;1.10;;
50319;SDS011;36226;53.464;9.852;2023-03-01T03:21:29;1.83;;;1.05;;
50319;SDS011;36226;53.464;9.852;2023-03-01T03:23:56;3.88;;;1.30;;
50319;SDS011;36226;53.464;9.852;2023-03-01T03:26:22;2.03;;;1.10;;
50319;SDS011;36226;53.464;9.852;2023-03-01T03:28:47;3.80;;;1.10;;
50319;SDS011;36226;53.464;9.852;2023-03-01T03:31:13;3.33;;;1.02;;
50319;SDS011;36226;53.464;9.852;2023-03-01T03:33:38;2.03;;;1.00;;
50319;SDS011;36226;53.464;9.852;2023-03-01T03:36:04;1.58;;;0.75;;
50319;SDS011;36226;53.464;9.852;2023-03-01T03:38:29;1.88;;;0.82;;
50319;SDS011;36226;53.464;9.852;2023-03-01T03:41:03;1.42;;;0.90;;
50319;SDS011;36226;53.464;9.852;2023-03-01T03:43:31;2.25;;;1.10;;
50319;SDS011;36226;53.464;9.852;2023-03-01T03:45:58;1.05;;;0.90;;
50319;SDS011;36226;53.464;9.852;2023-03-01T03:48:23;1.40;;;0.95;;
50319;SDS011;36226;53.464;9.852;2023-03-01T03:50:50;1.55;;;0.93;;
50319;SDS011;36226;53.464;9.852;2023-03-01T03:53:16;1.33;;;0.80;;
50319;SDS011;36226;53.464;9.852;2023-03-01T03:55:42;2.28;;;0.85;;
50319;SDS011;36226;53.464;9.852;2023-03-01T03:58:09;2.53;;;1.00;;
50319;SDS011;36226;53.464;9.852;2023-03-01T04:00:36;1.50;;;0.90;;
50319;SDS011;36226;53.464;9.852;2023-03-01T04:03:03;2.92;;;1.10;;
50319;SDS011;36226;53.464;9.852;2023-03-01T04:05:28;2.33;;;0.90;;
50319;SDS011;36226;53.464;9.852;2023-03-01T04:07:54;2.70;;;1.10;;
50319;SDS011;36226;53.464;9.852;2023-03-01T04:10:44;1.35;;;0.75;;
50319;SDS011;36226;53.464;9.852;2023-03-01T04:13:11;1.75;;;0.80;;
50319;SDS011;36226;53.464;9.852;2023-03-01T04:15:38;2.55;;;0.95;;
50319;SDS011;36226;53.464;9.852;2023-03-01T04:18:04;1.38;;;0.90;;
50319;SDS011;36226;53.464;9.852;2023-03-01T04:20:32;2.20;;;1.25;;
50319;SDS011;36226;53.464;9.852;2023-03-01T04:23:15;1.95;;;1.05;;
50319;SDS011;36226;53.464;9.852;2023-03-01T04:28:18;2.10;;;1.30;;
50319;SDS011;36226;53.464;9.852;2023-03-01T04:30:45;1.95;;;0.95;;
50319;SDS011;36226;53.464;9.852;2023-03-01T04:33:10;1.80;;;0.90;;
50319;SDS011;36226;53.464;9.852;2023-03-01T04:35:37;3.20;;;1.00;;
50319;SDS011;36226;53.464;9.852;2023-03-01T04:38:03;2.15;;;1.08;;
50319;SDS011;36226;53.464;9.852;2023-03-01T04:40:29;1.83;;;1.00;;
50319;SDS011;36226;53.464;9.852;2023-03-01T04:42:54;2.10;;;1.10;;
50319;SDS011;36226;53.464;9.852;2023-03-01T04:45:20;2.80;;;0.90;;
50319;SDS011;36226;53.464;9.852;2023-03-01T04:47:45;3.03;;;1.15;;
50319;SDS011;36226;53.464;9.852;2023-03-01T04:50:12;2.70;;;1.20;;
50319;SDS011;36226;53.464;9.852;2023-03-01T04:52:39;3.08;;;1.20;;
50319;SDS011;36226;53.464;9.852;2023-03-01T04:55:05;3.63;;;1.20;;
50319;SDS011;36226;53.464;9.852;2023-03-01T04:57:31;3.40;;;1.60;;
50319;SDS011;36226;53.464;9.852;2023-03-01T04:59:57;2.92;;;1.30;;
50319;SDS011;36226;53.464;9.852;2023-03-01T05:02:22;2.30;;;1.50;;
50319;SDS011;36226;53.464;9.852;2023-03-01T05:04:47;1.77;;;1.10;;
50319;SDS011;36226;53.464;9.852;2023-03-01T05:07:13;3.13;;;1.10;;
50319;SDS011;36226;53.464;9.852;2023-03-01T05:09:45;2.40;;;1.35;;
50319;SDS011;36226;53.464;9.852;2023-03-01T05:12:11;2.63;;;1.25;;
50319;SDS011;36226;53.464;9.852;2023-03-01T05:14:37;2.63;;;1.13;;
50319;SDS011;36226;53.464;9.852;2023-03-01T05:17:04;3.63;;;1.10;;
50319;SDS011;36226;53.464;9.852;2023-03-01T05:19:30;3.33;;;1.10;;
50319;SDS011;36226;53.464;9.852;2023-03-01T05:21:56;2.78;;;1.20;;
50319;SDS011;36226;53.464;9.852;2023-03-01T05:24:31;4.93;;;1.30;;
50319;SDS011;36226;53.464;9.852;2023-03-01T05:26:58;3.45;;;1.17;;
50319;SDS011;36226;53.464;9.852;2023-03-01T05:29:24;2.13;;;1.23;;
50319;SDS011;36226;53.464;9.852;2023-03-01T05:31:51;2.40;;;1.30;;
50319;SDS011;36226;53.464;9.852;2023-03-01T05:34:28;5.28;;;1.60;;
50319;SDS011;36226;53.464;9.852;2023-03-01T05:36:55;3.13;;;1.40;;
50319;SDS011;36226;53.464;9.852;2023-03-01T05:39:21;2.60;;;1.30;;
50319;SDS011;36226;53.464;9.852;2023-03-01T05:41:48;2.85;;;1.30;;
50319;SDS011;36226;53.464;9.852;2023-03-01T05:44:16;1.90;;;1.30;;
50319;SDS011;36226;53.464;9.852;2023-03-01T05:46:42;3.10;;;1.35;;
50319;SDS011;36226;53.464;9.852;2023-03-01T05:49:07;2.88;;;1.20;;
50319;SDS011;36226;53.464;9.852;2023-03-01T05:51:32;2.55;;;1.10;;
50319;SDS011;36226;53.464;9.852;2023-03-01T05:53:59;2.70;;;1.35;;
50319;SDS011;36226;53.464;9.852;2023-03-01T05:56:24;4.15;;;1.40;;
50319;SDS011;36226;53.464;9.852;2023-03-01T05:58:49;5.35;;;1.35;;
50319;SDS011;36226;53.464;9.852;2023-03-01T06:01:15;2.70;;;1.40;;
50319;SDS011;36226;53.464;9.852;2023-03-01T06:03:40;4.38;;;1.50;;
50319;SDS011;36226;53.464;9.852;2023-03-01T06:06:06;4.63;;;1.35;;
50319;SDS011;36226;53.464;9.852;2023-03-01T06:08:31;4.50;;;1.50;;
50319;SDS011;36226;53.464;9.852;2023-03-01T06:10:56;2.83;;;1.25;;
50319;SDS011;36226;53.464;9.852;2023-03-01T06:13:22;2.55;;;1.38;;
50319;SDS011;36226;53.464;9.852;2023-03-01T06:15:48;6.50;;;1.70;;
50319;SDS011;36226;53.464;9.852;2023-03-01T06:18:13;3.08;;;1.70;;
50319;SDS011;36226;53.464;9.852;2023-03-01T06:20:39;3.33;;;1.50;;
50319;SDS011;36226;53.464;9.852;2023-03-01T06:23:04;2.95;;;1.48;;
50319;SDS011;36226;53.464;9.852;2023-03-01T06:25:29;2.63;;;1.48;;
50319;SDS011;36226;53.464;9.852;2023-03-01T06:27:55;4.10;;;2.00;;
50319;SDS011;36226;53.464;9.852;2023-03-01T06:30:21;2.60;;;1.40;;
50319;SDS011;36226;53.464;9.852;2023-03-01T06:32:48;4.45;;;2.10;;
50319;SDS011;36226;53.464;9.852;2023-03-01T06:35:14;5.85;;;1.83;;
50319;SDS011;36226;53.464;9.852;2023-03-01T06:37:42;5.40;;;1.70;;
50319;SDS011;36226;53.464;9.852;2023-03-01T06:40:09;2.65;;;1.77;;
50319;SDS011;36226;53.464;9.852;2023-03-01T06:42:36;3.30;;;1.90;;
50319;SDS011;36226;53.464;9.852;2023-03-01T06:45:06;3.78;;;1.73;;
50319;SDS011;36226;53.464;9.852;2023-03-01T06:47:32;4.20;;;1.85;;
50319;SDS011;36226;53.464;9.852;2023-03-01T06:49:58;6.35;;;2.05;;
50319;SDS011;36226;53.464;9.852;2023-03-01T06:52:24;2.58;;;1.55;;
50319;SDS011;36226;53.464;9.852;2023-03-01T06:54:50;3.10;;;1.50;;
50319;SDS011;36226;53.464;9.852;2023-03-01T06:57:15;3.63;;;1.50;;
50319;SDS011;36226;53.464;9.852;2023-03-01T06:59:40;6.57;;;2.00;;
50319;SDS011;36226;53.464;9.852;2023-03-01T07:02:06;5.13;;;2.15;;
50319;SDS011;36226;53.464;9.852;2023-03-01T07:04:31;3.65;;;2.17;;
50319;SDS011;36226;53.464;9.852;2023-03-01T07:06:59;6.15;;;2.17;;
50319;SDS011;36226;53.464;9.852;2023-03-01T07:09:25;6.90;;;2.40;;
50319;SDS011;36226;53.464;9.852;2023-03-01T07:11:50;4.03;;;2.08;;
50319;SDS011;36226;53.464;9.852;2023-03-01T07:14:15;5.03;;;2.03;;
50319;SDS011;36226;53.464;9.852;2023-03-01T07:16:41;8.35;;;2.42;;
50319;SDS011;36226;53.464;9.852;2023-03-01T07:19:06;6.95;;;2.63;;
50319;SDS011;36226;53.464;9.852;2023-03-01T07:21:32;3.28;;;2.45;;
50319;SDS011;36226;53.464;9.852;2023-03-01T07:23:57;5.63;;;2.80;;
50319;SDS011;36226;53.464;9.852;2023-03-01T07:26:22;6.00;;;3.47;;
50319;SDS011;36226;53.464;9.852;2023-03-01T07:28:48;6.18;;;3.53;;
50319;SDS011;36226;53.464;9.852;2023-03-01T07:31:13;7.45;;;3.95;;
50319;SDS011;36226;53.464;9.852;2023-03-01T07:33:39;10.32;;;4.70;;
50319;SDS011;36226;53.464;9.852;2023-03-01T07:36:05;8.02;;;4.65;;
50319;SDS011;36226;53.464;9.852;2023-03-01T07:38:31;7.30;;;4.75;;
50319;SDS011;36226;53.464;9.852;2023-03-01T07:41:00;12.60;;;6.43;;
50319;SDS011;36226;53.464;9.852;2023-03-01T07:43:27;15.50;;;6.90;;
50319;SDS011;36226;53.464;9.852;2023-03-01T07:45:54;13.68;;;7.00;;
50319;SDS011;36226;53.464;9.852;2023-03-01T07:48:19;11.52;;;6.43;;
50319;SDS011;36226;53.464;9.852;2023-03-01T07:50:45;12.85;;;7.00;;
50319;SDS011;36226;53.464;9.852;2023-03-01T07:53:10;12.25;;;6.25;;
50319;SDS011;36226;53.464;9.852;2023-03-01T07:55:36;7.75;;;3.97;;
50319;SDS011;36226;53.464;9.852;2023-03-01T07:58:01;31.98;;;17.08;;
50319;SDS011;36226;53.464;9.852;2023-03-01T08:00:27;16.23;;;9.65;;
50319;SDS011;36226;53.464;9.852;2023-03-01T08:02:52;14.55;;;7.47;;
50319;SDS011;36226;53.464;9.852;2023-03-01T08:05:18;9.93;;;5.50;;
50319;SDS011;36226;53.464;9.852;2023-03-01T08:07:43;6.25;;;3.30;;
50319;SDS011;36226;53.464;9.852;2023-03-01T08:10:09;6.18;;;2.88;;
50319;SDS011;36226;53.464;9.852;2023-03-01T08:12:35;5.95;;;4.03;;
50319;SDS011;36226;53.464;9.852;2023-03-01T08:15:00;7.35;;;3.85;;
50319;SDS011;36226;53.464;9.852;2023-03-01T08:17:25;5.53;;;3.60;;
50319;SDS011;36226;53.464;9.852;2023-03-01T08:19:51;5.82;;;3.30;;
50319;SDS011;36226;53.464;9.852;2023-03-01T08:22:16;5.65;;;3.42;;
50319;SDS011;36226;53.464;9.852;2023-03-01T08:24:41;5.63;;;3.47;;
50319;SDS011;36226;53.464;9.852;2023-03-01T08:27:07;4.88;;;2.97;;
50319;SDS011;36226;53.464;9.852;2023-03-01T08:29:32;6.80;;;3.05;;
50319;SDS011;36226;53.464;9.852;2023-03-01T08:31:58;6.57;;;3.22;;
50319;SDS011;36226;53.464;9.852;2023-03-01T08:34:24;7.05;;;3.40;;
50319;SDS011;36226;53.464;9.852;2023-03-01T08:36:49;8.80;;;3.50;;
50319;SDS011;36226;53.464;9.852;2023-03-01T08:39:18;6.50;;;3.50;;
50319;SDS011;36226;53.464;9.852;2023-03-01T08:41:45;8.23;;;3.95;;
50319;SDS011;36226;53.464;9.852;2023-03-01T08:44:11;6.88;;;4.07;;
50319;SDS011;36226;53.464;9.852;2023-03-01T08:46:39;7.60;;;4.53;;
50319;SDS011;36226;53.464;9.852;2023-03-01T08:49:06;8.13;;;3.90;;
50319;SDS011;36226;53.464;9.852;2023-03-01T08:51:32;6.90;;;3.88;;
50319;SDS011;36226;53.464;9.852;2023-03-01T08:54:01;9.23;;;3.83;;
50319;SDS011;36226;53.464;9.852;2023-03-01T08:56:30;7.38;;;3.60;;
50319;SDS011;36226;53.464;9.852;2023-03-01T08:58:56;8.88;;;4.18;;
50319;SDS011;36226;53.464;9.852;2023-03-01T09:01:21;8.85;;;3.95;;
50319;SDS011;36226;53.464;9.852;2023-03-01T09:03:46;8.85;;;4.38;;
50319;SDS011;36226;53.464;9.852;2023-03-01T09:06:12;7.88;;;4.57;;
50319;SDS011;36226;53.464;9.852;2023-03-01T09:08:42;8.30;;;4.80;;
50319;SDS011;36226;53.464;9.852;2023-03-01T09:11:13;10.80;;;4.95;;
50319;SDS011;36226;53.464;9.852;2023-03-01T09:13:41;9.93;;;5.32;;
50319;SDS011;36226;53.464;9.852;2023-03-01T09:16:07;11.30;;;5.60;;
50319;SDS011;36226;53.464;9.852;2023-03-01T09:18:34;11.00;;;5.55;;
50319;SDS011;36226;53.464;9.852;2023-03-01T09:21:03;13.65;;;5.55;;
50319;SDS011;36226;53.464;9.852;2023-03-01T09:23:34;12.32;;;6.25;;
50319;SDS011;36226;53.464;9.852;2023-03-01T09:26:07;10.35;;;5.82;;
50319;SDS011;36226;53.464;9.852;2023-03-01T09:28:37;8.43;;;5.35;;
50319;SDS011;36226;53.464;9.852;2023-03-01T09:31:03;11.70;;;5.90;;
50319;SDS011;36226;53.464;9.852;2023-03-01T09:33:30;12.43;;;6.30;;
50319;SDS011;36226;53.464;9.852;2023-03-01T09:36:07;12.30;;;6.82;;
50319;SDS011;36226;53.464;9.852;2023-03-01T09:38:36;16.27;;;8.27;;
50319;SDS011;36226;53.464;9.852;2023-03-01T09:41:01;13.82;;;6.90;;
50319;SDS011;36226;53.464;9.852;2023-03-01T09:46:08;8.27;;;5.85;;
50319;SDS011;36226;53.464;9.852;2023-03-01T09:51:29;11.15;;;6.45;;
50319;SDS011;36226;53.464;9.852;2023-03-01T09:53:55;11.70;;;6.38;;
50319;SDS011;36226;53.464;9.852;2023-03-01T09:58:56;11.68;;;6.32;;
50319;SDS011;36226;53.464;9.852;2023-03-01T10:01:32;12.63;;;6.90;;
50319;SDS011;36226;53.464;9.852;2023-03-01T10:04:09;13.13;;;6.82;;
50319;SDS011;36226;53.464;9.852;2023-03-01T10:06:47;14.50;;;6.70;;
50319;SDS011;36226;53.464;9.852;2023-03-01T10:09:19;11.15;;;6.68;;
50319;SDS011;36226;53.464;9.852;2023-03-01T10:14:22;14.52;;;6.93;;
50319;SDS011;36226;53.464;9.852;2023-03-01T10:16:54;13.00;;;6.93;;
50319;SDS011;36226;53.464;9.852;2023-03-01T10:21:52;14.70;;;8.27;;
50319;SDS011;36226;53.464;9.852;2023-03-01T10:24:19;15.15;;;8.27;;
50319;SDS011;36226;53.464;9.852;2023-03-01T10:26:56;18.15;;;8.90;;
50319;SDS011;36226;53.464;9.852;2023-03-01T10:29:25;15.40;;;8.82;;
50319;SDS011;36226;53.464;9.852;2023-03-01T10:32:03;15.98;;;9.27;;
50319;SDS011;36226;53.464;9.852;2023-03-01T10:34:30;15.77;;;8.93;;
50319;SDS011;36226;53.464;9.852;2023-03-01T10:37:19;15.88;;;9.00;;
50319;SDS011;36226;53.464;9.852;2023-03-01T10:42:46;15.13;;;8.68;;
50319;SDS011;36226;53.464;9.852;2023-03-01T10:45:15;16.58;;;9.00;;
50319;SDS011;36226;53.464;9.852;2023-03-01T10:47:44;13.57;;;7.65;;
50319;SDS011;36226;53.464;9.852;2023-03-01T10:50:19;20.63;;;9.43;;
50319;SDS011;36226;53.464;9.852;2023-03-01T10:53:02;14.77;;;7.90;;
50319;SDS011;36226;53.464;9.852;2023-03-01T10:55:31;14.88;;;7.78;;
50319;SDS011;36226;53.464;9.852;2023-03-01T10:58:06;13.93;;;8.30;;
50319;SDS011;36226;53.464;9.852;2023-03-01T11:03:13;14.30;;;8.95;;
50319;SDS011;36226;53.464;9.852;2023-03-01T11:08:34;13.80;;;7.63;;
50319;SDS011;36226;53.464;9.852;2023-03-01T11:14:07;13.65;;;7.72;;
50319;SDS011;36226;53.464;9.852;2023-03-01T11:16:41;12.23;;;7.32;;
50319;SDS011;36226;53.464;9.852;2023-03-01T11:21:36;14.65;;;7.82;;
50319;SDS011;36226;53.464;9.852;2023-03-01T11:24:05;16.00;;;7.85;;
50319;SDS011;36226;53.464;9.852;2023-03-01T11:26:36;15.40;;;8.38;;
50319;SDS011;36226;53.464;9.852;2023-03-01T11:29:16;13.30;;;7.53;;
50319;SDS011;36226;53.464;9.852;2023-03-01T11:31:46;11.40;;;7.03;;
50319;SDS011;36226;53.464;9.852;2023-03-01T11:34:19;12.30;;;6.72;;
50319;SDS011;36226;53.464;9.852;2023-03-01T11:36:51;10.55;;;6.30;;
50319;SDS011;36226;53.464;9.852;2023-03-01T11:45:08;11.57;;;6.78;;
50319;SDS011;36226;53.464;9.852;2023-03-01T11:50:39;9.20;;;5.57;;
50319;SDS011;36226;53.464;9.852;2023-03-01T11:59:07;11.25;;;5.43;;
50319;SDS011;36226;53.464;9.852;2023-03-01T12:01:48;8.77;;;5.07;;
50319;SDS011;36226;53.464;9.852;2023-03-01T12:10:35;9.00;;;5.10;;
50319;SDS011;36226;53.464;9.852;2023-03-01T12:16:13;9.18;;;5.20;;
50319;SDS011;36226;53.464;9.852;2023-03-01T12:21:18;8.48;;;5.10;;
50319;SDS011;36226;53.464;9.852;2023-03-01T12:32:18;7.68;;;4.90;;
50319;SDS011;36226;53.464;9.852;2023-03-01T12:46:10;9.98;;;5.13;;
50319;SDS011;36226;53.464;9.852;2023-03-01T12:49:10;9.43;;;5.07;;
50319;SDS011;36226;53.464;9.852;2023-03-01T12:51:39;9.60;;;5.32;;
50319;SDS011;36226;53.464;9.852;2023-03-01T12:54:07;8.88;;;5.13;;
50319;SDS011;36226;53.464;9.852;2023-03-01T12:56:49;9.32;;;5.32;;
50319;SDS011;36226;53.464;9.852;2023-03-01T13:02:13;11.98;;;5.88;;
50319;SDS011;36226;53.464;9.852;2023-03-01T13:04:51;10.23;;;5.53;;
50319;SDS011;36226;53.464;9.852;2023-03-01T13:07:29;9.65;;;5.03;;
50319;SDS011;36226;53.464;9.852;2023-03-01T13:17:47;10.80;;;5.40;;
50319;SDS011;36226;53.464;9.852;2023-03-01T13:20:45;10.23;;;5.95;;
50319;SDS011;36226;53.464;9.852;2023-03-01T13:33:50;15.23;;;7.25;;
50319;SDS011;36226;53.464;9.852;2023-03-01T13:46:48;13.57;;;7.07;;
50319;SDS011;36226;53.464;9.852;2023-03-01T13:49:16;12.48;;;6.90;;
50319;SDS011;36226;53.464;9.852;2023-03-01T13:51:47;14.48;;;7.32;;
50319;SDS011;36226;53.464;9.852;2023-03-01T13:54:17;10.50;;;6.10;;
50319;SDS011;36226;53.464;9.852;2023-03-01T13:56:49;11.60;;;6.53;;
50319;SDS011;36226;53.464;9.852;2023-03-01T13:59:16;11.57;;;6.45;;
50319;SDS011;36226;53.464;9.852;2023-03-01T14:01:43;12.82;;;6.32;;
50319;SDS011;36226;53.464;9.852;2023-03-01T14:04:41;15.10;;;6.65;;
50319;SDS011;36226;53.464;9.852;2023-03-01T14:07:10;12.52;;;6.45;;
50319;SDS011;36226;53.464;9.852;2023-03-01T14:09:40;11.02;;;6.80;;
50319;SDS011;36226;53.464;9.852;2023-03-01T14:18:04;14.55;;;8.45;;
50319;SDS011;36226;53.464;9.852;2023-03-01T14:20:45;15.50;;;8.85;;
50319;SDS011;36226;53.464;9.852;2023-03-01T14:23:19;15.25;;;9.18;;
50319;SDS011;36226;53.464;9.852;2023-03-01T14:25:53;18.38;;;9.52;;
50319;SDS011;36226;53.464;9.852;2023-03-01T14:28:30;17.42;;;9.32;;
50319;SDS011;36226;53.464;9.852;2023-03-01T14:30:59;20.02;;;10.25;;
50319;SDS011;36226;53.464;9.852;2023-03-01T14:33:32;21.20;;;10.32;;
50319;SDS011;36226;53.464;9.852;2023-03-01T14:36:02;21.10;;;9.63;;
50319;SDS011;36226;53.464;9.852;2023-03-01T14:38:39;20.13;;;10.52;;
50319;SDS011;36226;53.464;9.852;2023-03-01T14:46:20;21.30;;;10.38;;
50319;SDS011;36226;53.464;9.852;2023-03-01T14:48:51;21.90;;;10.65;;
50319;SDS011;36226;53.464;9.852;2023-03-01T14:51:17;20.45;;;10.27;;
50319;SDS011;36226;53.464;9.852;2023-03-01T14:53:42;22.67;;;10.85;;
50319;SDS011;36226;53.464;9.852;2023-03-01T14:56:16;19.98;;;9.32;;
50319;SDS011;36226;53.464;9.852;2023-03-01T14:58:43;22.92;;;10.82;;
50319;SDS011;36226;53.464;9.852;2023-03-01T15:01:10;19.98;;;10.43;;
50319;SDS011;36226;53.464;9.852;2023-03-01T15:03:40;17.95;;;9.63;;
50319;SDS011;36226;53.464;9.852;2023-03-01T15:06:10;20.55;;;10.27;;
50319;SDS011;36226;53.464;9.852;2023-03-01T15:08:37;21.70;;;11.40;;
50319;SDS011;36226;53.464;9.852;2023-03-01T15:13:38;23.85;;;11.35;;
50319;SDS011;36226;53.464;9.852;2023-03-01T15:16:13;23.58;;;11.93;;
50319;SDS011;36226;53.464;9.852;2023-03-01T15:19:02;23.00;;;11.48;;
50319;SDS011;36226;53.464;9.852;2023-03-01T15:24:04;24.25;;;11.32;;
50319;SDS011;36226;53.464;9.852;2023-03-01T15:26:45;26.02;;;11.63;;
50319;SDS011;36226;53.464;9.852;2023-03-01T15:29:21;22.13;;;11.10;;
50319;SDS011;36226;53.464;9.852;2023-03-01T15:31:56;20.95;;;10.70;;
50319;SDS011;36226;53.464;9.852;2023-03-01T15:34:22;21.60;;;10.38;;
50319;SDS011;36226;53.464;9.852;2023-03-01T15:36:50;27.38;;;11.35;;
50319;SDS011;36226;53.464;9.852;2023-03-01T15:39:26;22.85;;;10.88;;
50319;SDS011;36226;53.464;9.852;2023-03-01T15:41:52;19.80;;;9.90;;
50319;SDS011;36226;53.464;9.852;2023-03-01T15:44:23;22.23;;;9.90;;
50319;SDS011;36226;53.464;9.852;2023-03-01T15:46:53;17.98;;;8.90;;
50319;SDS011;36226;53.464;9.852;2023-03-01T15:51:53;16.02;;;9.20;;
50319;SDS011;36226;53.464;9.852;2023-03-01T15:54:20;18.95;;;9.02;;
50319;SDS011;36226;53.464;9.852;2023-03-01T15:56:47;18.45;;;9.48;;
50319;SDS011;36226;53.464;9.852;2023-03-01T15:59:13;19.33;;;9.65;;
50319;SDS011;36226;53.464;9.852;2023-03-01T16:01:39;19.38;;;9.60;;
50319;SDS011;36226;53.464;9.852;2023-03-01T16:04:05;20.48;;;9.20;;
50319;SDS011;36226;53.464;9.852;2023-03-01T16:06:30;18.08;;;8.80;;
50319;SDS011;36226;53.464;9.852;2023-03-01T16:08:56;18.88;;;9.23;;
50319;SDS011;36226;53.464;9.852;2023-03-01T16:11:21;20.65;;;9.20;;
50319;SDS011;36226;53.464;9.852;2023-03-01T16:13:47;18.92;;;8.77;;
50319;SDS011;36226;53.464;9.852;2023-03-01T16:16:13;18.55;;;9.30;;
50319;SDS011;36226;53.464;9.852;2023-03-01T16:18:44;19.65;;;9.55;;
50319;SDS011;36226;53.464;9.852;2023-03-01T16:21:12;20.13;;;10.02;;
50319;SDS011;36226;53.464;9.852;2023-03-01T16:23:43;20.02;;;9.68;;
50319;SDS011;36226;53.464;9.852;2023-03-01T16:26:09;19.38;;;9.43;;
50319;SDS011;36226;53.464;9.852;2023-03-01T16:28:35;21.52;;;9.60;;
50319;SDS011;36226;53.464;9.852;2023-03-01T16:31:00;19.50;;;10.20;;
50319;SDS011;36226;53.464;9.852;2023-03-01T16:33:26;21.35;;;10.02;;
50319;SDS011;36226;53.464;9.852;2023-03-01T16:35:52;20.65;;;10.18;;
50319;SDS011;36226;53.464;9.852;2023-03-01T16:38:17;21.52;;;10.70;;
50319;SDS011;36226;53.464;9.852;2023-03-01T16:40:46;19.58;;;9.07;;
50319;SDS011;36226;53.464;9.852;2023-03-01T16:43:13;17.88;;;9.45;;
50319;SDS011;36226;53.464;9.852;2023-03-01T16:45:38;19.45;;;9.55;;
50319;SDS011;36226;53.464;9.852;2023-03-01T16:48:05;20.48;;;9.07;;
50319;SDS011;36226;53.464;9.852;2023-03-01T16:50:31;19.60;;;9.38;;
50319;SDS011;36226;53.464;9.852;2023-03-01T16:52:56;19.63;;;9.20;;
50319;SDS011;36226;53.464;9.852;2023-03-01T16:55:22;22.77;;;9.70;;
50319;SDS011;36226;53.464;9.852;2023-03-01T16:57:48;20.85;;;9.60;;
50319;SDS011;36226;53.464;9.852;2023-03-01T17:00:13;21.65;;;10.40;;
50319;SDS011;36226;53.464;9.852;2023-03-01T17:02:39;22.05;;;9.98;;